sensor_id;sensor_type;location;lat;lon;timestamp;P1;durP1;ratioP1;P2;durP2;ratioP2
8317;SDS011;4196;48.926;8.964;2022-07-23T00:00:27;6.93;;;4.60;;
8317;SDS011;4196;48.926;8.964;2022-07-23T00:03:13;4.80;;;4.13;;
8317;SDS011;4196;48.926;8.964;2022-07-23T00:06:00;5.73;;;4.27;;
8317;SDS011;4196;48.926;8.964;2022-07-23T00:08:47;6.50;;;3.90;;
8317;SDS011;4196;48.926;8.964;2022-07-23T00:11:33;5.30;;;4.80;;
8317;SDS011;4196;48.926;8.964;2022-07-23T00:14:20;4.70;;;4.07;;
8317;SDS011;4196;48.926;8.964;2022-07-23T00:17:06;4.20;;;3.80;;
8317;SDS011;4196;48.926;8.964;2022-07-23T00:19:52;4.80;;;4.20;;
8317;SDS011;4196;48.926;8.964;2022-07-23T00:22:46;6.33;;;3.97;;
8317;SDS011;4196;48.926;8.964;2022-07-23T00:25:37;4.57;;;4.03;;
8317;SDS011;4196;48.926;8.964;2022-07-23T00:28:23;5.50;;;4.00;;
8317;SDS011;4196;48.926;8.964;2022-07-23T00:31:10;4.70;;;4.20;;
8317;SDS011;4196;48.926;8.964;2022-07-23T00:33:56;4.50;;;4.10;;
8317;SDS011;4196;48.926;8.964;2022-07-23T00:36:43;4.77;;;4.00;;
8317;SDS011;4196;48.926;8.964;2022-07-23T00:39:29;4.87;;;3.87;;
8317;SDS011;4196;48.926;8.964;2022-07-23T00:42:16;5.13;;;4.53;;
8317;SDS011;4196;48.926;8.964;2022-07-23T00:45:03;4.60;;;3.87;;
8317;SDS011;4196;48.926;8.964;2022-07-23T00:47:50;5.30;;;4.63;;
8317;SDS011;4196;48.926;8.964;2022-07-23T00:50:37;5.47;;;4.27;;
8317;SDS011;4196;48.926;8.964;2022-07-23T00:53:23;5.57;;;4.50;;
8317;SDS011;4196;48.926;8.964;2022-07-23T00:56:11;7.57;;;4.00;;
8317;SDS011;4196;48.926;8.964;2022-07-23T00:58:59;5.50;;;4.20;;
8317;SDS011;4196;48.926;8.964;2022-07-23T01:01:48;4.93;;;4.20;;
8317;SDS011;4196;48.926;8.964;2022-07-23T01:04:35;5.90;;;4.47;;
8317;SDS011;4196;48.926;8.964;2022-07-23T01:07:22;5.97;;;4.30;;
8317;SDS011;4196;48.926;8.964;2022-07-23T01:10:09;5.67;;;4.50;;
8317;SDS011;4196;48.926;8.964;2022-07-23T01:13:15;5.03;;;4.50;;
8317;SDS011;4196;48.926;8.964;2022-07-23T01:16:01;4.77;;;4.07;;
8317;SDS011;4196;48.926;8.964;2022-07-23T01:18:48;5.10;;;4.60;;
8317;SDS011;4196;48.926;8.964;2022-07-23T01:21:39;5.63;;;4.77;;
8317;SDS011;4196;48.926;8.964;2022-07-23T01:24:27;5.77;;;4.90;;
8317;SDS011;4196;48.926;8.964;2022-07-23T01:27:22;6.17;;;4.73;;
8317;SDS011;4196;48.926;8.964;2022-07-23T01:30:13;5.30;;;4.80;;
8317;SDS011;4196;48.926;8.964;2022-07-23T01:32:59;5.30;;;4.70;;
8317;SDS011;4196;48.926;8.964;2022-07-23T01:35:46;5.57;;;4.70;;
8317;SDS011;4196;48.926;8.964;2022-07-23T01:38:38;6.67;;;4.90;;
8317;SDS011;4196;48.926;8.964;2022-07-23T01:41:25;6.53;;;4.83;;
8317;SDS011;4196;48.926;8.964;2022-07-23T01:44:12;4.87;;;4.37;;
8317;SDS011;4196;48.926;8.964;2022-07-23T01:47:00;5.07;;;4.57;;
8317;SDS011;4196;48.926;8.964;2022-07-23T01:49:47;5.77;;;5.17;;
8317;SDS011;4196;48.926;8.964;2022-07-23T01:52:36;6.13;;;4.13;;
8317;SDS011;4196;48.926;8.964;2022-07-23T01:55:22;5.47;;;4.40;;
8317;SDS011;4196;48.926;8.964;2022-07-23T01:58:09;5.50;;;4.17;;
8317;SDS011;4196;48.926;8.964;2022-07-23T02:00:56;5.37;;;4.70;;
8317;SDS011;4196;48.926;8.964;2022-07-23T02:03:42;5.00;;;3.83;;
8317;SDS011;4196;48.926;8.964;2022-07-23T02:06:29;7.93;;;5.10;;
8317;SDS011;4196;48.926;8.964;2022-07-23T02:09:15;4.90;;;4.30;;
8317;SDS011;4196;48.926;8.964;2022-07-23T02:12:02;5.13;;;4.53;;
8317;SDS011;4196;48.926;8.964;2022-07-23T02:14:49;6.07;;;4.70;;
8317;SDS011;4196;48.926;8.964;2022-07-23T02:17:35;4.97;;;4.50;;
8317;SDS011;4196;48.926;8.964;2022-07-23T02:20:22;4.93;;;4.43;;
8317;SDS011;4196;48.926;8.964;2022-07-23T02:23:08;6.03;;;4.87;;
8317;SDS011;4196;48.926;8.964;2022-07-23T02:25:55;6.63;;;4.93;;
8317;SDS011;4196;48.926;8.964;2022-07-23T02:28:41;5.60;;;4.50;;
8317;SDS011;4196;48.926;8.964;2022-07-23T02:31:28;7.17;;;5.10;;
8317;SDS011;4196;48.926;8.964;2022-07-23T02:34:15;6.10;;;4.47;;
8317;SDS011;4196;48.926;8.964;2022-07-23T02:37:02;6.17;;;4.87;;
8317;SDS011;4196;48.926;8.964;2022-07-23T02:39:49;6.07;;;4.30;;
8317;SDS011;4196;48.926;8.964;2022-07-23T02:42:36;5.30;;;4.80;;
8317;SDS011;4196;48.926;8.964;2022-07-23T02:45:23;5.13;;;4.20;;
8317;SDS011;4196;48.926;8.964;2022-07-23T02:48:12;4.60;;;4.10;;
8317;SDS011;4196;48.926;8.964;2022-07-23T02:51:01;5.70;;;3.97;;
8317;SDS011;4196;48.926;8.964;2022-07-23T02:53:54;6.97;;;4.03;;
8317;SDS011;4196;48.926;8.964;2022-07-23T02:56:41;5.57;;;4.33;;
8317;SDS011;4196;48.926;8.964;2022-07-23T02:59:27;4.77;;;4.17;;
8317;SDS011;4196;48.926;8.964;2022-07-23T03:02:13;4.97;;;3.80;;
8317;SDS011;4196;48.926;8.964;2022-07-23T03:05:00;4.50;;;3.80;;
8317;SDS011;4196;48.926;8.964;2022-07-23T03:07:47;5.07;;;3.90;;
8317;SDS011;4196;48.926;8.964;2022-07-23T03:10:33;4.57;;;4.03;;
8317;SDS011;4196;48.926;8.964;2022-07-23T03:13:20;4.10;;;3.70;;
8317;SDS011;4196;48.926;8.964;2022-07-23T03:16:06;5.67;;;4.60;;
8317;SDS011;4196;48.926;8.964;2022-07-23T03:18:55;5.00;;;4.47;;
8317;SDS011;4196;48.926;8.964;2022-07-23T03:21:41;4.87;;;4.40;;
8317;SDS011;4196;48.926;8.964;2022-07-23T03:24:27;4.47;;;4.03;;
8317;SDS011;4196;48.926;8.964;2022-07-23T03:27:33;4.43;;;4.03;;
8317;SDS011;4196;48.926;8.964;2022-07-23T03:30:19;4.80;;;4.30;;
8317;SDS011;4196;48.926;8.964;2022-07-23T03:33:07;4.90;;;4.40;;
8317;SDS011;4196;48.926;8.964;2022-07-23T03:35:53;5.47;;;4.30;;
8317;SDS011;4196;48.926;8.964;2022-07-23T03:38:44;4.50;;;4.07;;
8317;SDS011;4196;48.926;8.964;2022-07-23T03:41:31;4.53;;;3.87;;
8317;SDS011;4196;48.926;8.964;2022-07-23T03:44:18;4.50;;;3.83;;
8317;SDS011;4196;48.926;8.964;2022-07-23T03:47:05;5.10;;;4.27;;
8317;SDS011;4196;48.926;8.964;2022-07-23T03:49:52;4.57;;;4.13;;
8317;SDS011;4196;48.926;8.964;2022-07-23T03:52:38;12.37;;;4.93;;
8317;SDS011;4196;48.926;8.964;2022-07-23T03:55:25;6.87;;;5.00;;
8317;SDS011;4196;48.926;8.964;2022-07-23T03:58:11;6.30;;;4.53;;
8317;SDS011;4196;48.926;8.964;2022-07-23T04:00:59;5.30;;;4.80;;
8317;SDS011;4196;48.926;8.964;2022-07-23T04:03:45;5.27;;;4.63;;
8317;SDS011;4196;48.926;8.964;2022-07-23T04:06:32;4.63;;;4.13;;
8317;SDS011;4196;48.926;8.964;2022-07-23T04:09:19;6.20;;;4.57;;
8317;SDS011;4196;48.926;8.964;2022-07-23T04:12:06;5.03;;;4.53;;
8317;SDS011;4196;48.926;8.964;2022-07-23T04:14:53;6.60;;;4.50;;
8317;SDS011;4196;48.926;8.964;2022-07-23T04:17:40;5.47;;;4.77;;
8317;SDS011;4196;48.926;8.964;2022-07-23T04:20:26;6.53;;;5.07;;
8317;SDS011;4196;48.926;8.964;2022-07-23T04:23:17;7.40;;;5.47;;
8317;SDS011;4196;48.926;8.964;2022-07-23T04:26:05;6.93;;;4.33;;
8317;SDS011;4196;48.926;8.964;2022-07-23T04:28:53;5.27;;;4.60;;
8317;SDS011;4196;48.926;8.964;2022-07-23T04:31:39;5.80;;;4.50;;
8317;SDS011;4196;48.926;8.964;2022-07-23T04:34:26;5.93;;;5.00;;
8317;SDS011;4196;48.926;8.964;2022-07-23T04:37:14;5.77;;;5.00;;
8317;SDS011;4196;48.926;8.964;2022-07-23T04:40:00;6.33;;;5.23;;
8317;SDS011;4196;48.926;8.964;2022-07-23T04:42:47;6.63;;;5.60;;
8317;SDS011;4196;48.926;8.964;2022-07-23T04:45:33;6.03;;;4.63;;
8317;SDS011;4196;48.926;8.964;2022-07-23T04:48:20;8.33;;;4.97;;
8317;SDS011;4196;48.926;8.964;2022-07-23T04:51:13;5.53;;;5.00;;
8317;SDS011;4196;48.926;8.964;2022-07-23T04:54:00;6.20;;;4.20;;
8317;SDS011;4196;48.926;8.964;2022-07-23T04:56:46;6.70;;;4.50;;
8317;SDS011;4196;48.926;8.964;2022-07-23T04:59:33;5.70;;;5.00;;
8317;SDS011;4196;48.926;8.964;2022-07-23T05:02:22;5.43;;;4.47;;
8317;SDS011;4196;48.926;8.964;2022-07-23T05:05:09;6.30;;;4.50;;
8317;SDS011;4196;48.926;8.964;2022-07-23T05:07:56;7.37;;;5.10;;
8317;SDS011;4196;48.926;8.964;2022-07-23T05:10:42;4.87;;;4.10;;
8317;SDS011;4196;48.926;8.964;2022-07-23T05:13:29;5.80;;;3.87;;
8317;SDS011;4196;48.926;8.964;2022-07-23T05:16:15;5.37;;;4.80;;
8317;SDS011;4196;48.926;8.964;2022-07-23T05:19:02;5.67;;;4.83;;
8317;SDS011;4196;48.926;8.964;2022-07-23T05:21:52;5.57;;;5.00;;
8317;SDS011;4196;48.926;8.964;2022-07-23T05:24:39;7.87;;;4.80;;
8317;SDS011;4196;48.926;8.964;2022-07-23T05:27:27;5.50;;;5.00;;
8317;SDS011;4196;48.926;8.964;2022-07-23T05:30:14;6.23;;;4.80;;
8317;SDS011;4196;48.926;8.964;2022-07-23T05:33:03;6.43;;;4.60;;
8317;SDS011;4196;48.926;8.964;2022-07-23T05:35:50;7.13;;;5.13;;
8317;SDS011;4196;48.926;8.964;2022-07-23T05:38:59;5.33;;;4.63;;
8317;SDS011;4196;48.926;8.964;2022-07-23T05:41:48;5.90;;;4.73;;
8317;SDS011;4196;48.926;8.964;2022-07-23T05:44:35;7.50;;;4.93;;
8317;SDS011;4196;48.926;8.964;2022-07-23T05:47:21;6.27;;;4.90;;
8317;SDS011;4196;48.926;8.964;2022-07-23T05:50:08;5.73;;;4.43;;
8317;SDS011;4196;48.926;8.964;2022-07-23T05:53:01;6.93;;;4.50;;
8317;SDS011;4196;48.926;8.964;2022-07-23T05:55:48;5.37;;;4.10;;
8317;SDS011;4196;48.926;8.964;2022-07-23T05:58:35;5.33;;;4.70;;
8317;SDS011;4196;48.926;8.964;2022-07-23T06:01:21;6.13;;;4.33;;
8317;SDS011;4196;48.926;8.964;2022-07-23T06:04:16;4.57;;;4.17;;
8317;SDS011;4196;48.926;8.964;2022-07-23T06:07:16;8.03;;;5.53;;
8317;SDS011;4196;48.926;8.964;2022-07-23T06:10:03;5.93;;;4.13;;
8317;SDS011;4196;48.926;8.964;2022-07-23T06:12:50;5.30;;;4.23;;
8317;SDS011;4196;48.926;8.964;2022-07-23T06:15:37;5.93;;;5.00;;
8317;SDS011;4196;48.926;8.964;2022-07-23T06:18:24;7.43;;;4.40;;
8317;SDS011;4196;48.926;8.964;2022-07-23T06:21:12;5.20;;;4.30;;
8317;SDS011;4196;48.926;8.964;2022-07-23T06:24:19;6.10;;;5.03;;
8317;SDS011;4196;48.926;8.964;2022-07-23T06:27:07;7.20;;;4.30;;
8317;SDS011;4196;48.926;8.964;2022-07-23T06:29:54;7.23;;;4.90;;
8317;SDS011;4196;48.926;8.964;2022-07-23T06:32:40;6.97;;;4.63;;
8317;SDS011;4196;48.926;8.964;2022-07-23T06:35:26;5.03;;;4.03;;
8317;SDS011;4196;48.926;8.964;2022-07-23T06:38:13;5.93;;;4.07;;
8317;SDS011;4196;48.926;8.964;2022-07-23T06:41:00;4.83;;;4.33;;
8317;SDS011;4196;48.926;8.964;2022-07-23T06:43:47;10.87;;;4.33;;
8317;SDS011;4196;48.926;8.964;2022-07-23T06:46:35;9.23;;;5.20;;
8317;SDS011;4196;48.926;8.964;2022-07-23T06:49:21;9.43;;;6.03;;
8317;SDS011;4196;48.926;8.964;2022-07-23T06:52:08;9.00;;;5.80;;
8317;SDS011;4196;48.926;8.964;2022-07-23T06:54:54;10.93;;;5.90;;
8317;SDS011;4196;48.926;8.964;2022-07-23T06:57:41;7.27;;;5.47;;
8317;SDS011;4196;48.926;8.964;2022-07-23T07:00:27;9.97;;;6.40;;
8317;SDS011;4196;48.926;8.964;2022-07-23T07:03:14;9.83;;;5.70;;
8317;SDS011;4196;48.926;8.964;2022-07-23T07:06:02;10.67;;;6.83;;
8317;SDS011;4196;48.926;8.964;2022-07-23T07:08:49;10.13;;;5.67;;
8317;SDS011;4196;48.926;8.964;2022-07-23T07:11:35;10.50;;;6.77;;
8317;SDS011;4196;48.926;8.964;2022-07-23T07:14:21;9.40;;;5.43;;
8317;SDS011;4196;48.926;8.964;2022-07-23T07:17:08;10.00;;;7.07;;
8317;SDS011;4196;48.926;8.964;2022-07-23T07:19:56;8.90;;;6.20;;
8317;SDS011;4196;48.926;8.964;2022-07-23T07:22:43;9.43;;;6.57;;
8317;SDS011;4196;48.926;8.964;2022-07-23T07:25:29;7.20;;;5.47;;
8317;SDS011;4196;48.926;8.964;2022-07-23T07:28:15;7.63;;;5.90;;
8317;SDS011;4196;48.926;8.964;2022-07-23T07:31:02;9.27;;;6.00;;
8317;SDS011;4196;48.926;8.964;2022-07-23T07:33:49;6.97;;;5.83;;
8317;SDS011;4196;48.926;8.964;2022-07-23T07:36:35;11.37;;;6.87;;
8317;SDS011;4196;48.926;8.964;2022-07-23T07:39:23;9.57;;;6.30;;
8317;SDS011;4196;48.926;8.964;2022-07-23T07:42:09;7.73;;;5.70;;
8317;SDS011;4196;48.926;8.964;2022-07-23T07:44:55;7.30;;;5.63;;
8317;SDS011;4196;48.926;8.964;2022-07-23T07:47:42;7.07;;;5.90;;
8317;SDS011;4196;48.926;8.964;2022-07-23T07:50:28;8.30;;;5.23;;
8317;SDS011;4196;48.926;8.964;2022-07-23T07:53:16;7.27;;;6.03;;
8317;SDS011;4196;48.926;8.964;2022-07-23T07:56:03;6.43;;;5.57;;
8317;SDS011;4196;48.926;8.964;2022-07-23T07:58:51;6.80;;;5.87;;
8317;SDS011;4196;48.926;8.964;2022-07-23T08:01:37;7.07;;;5.50;;
8317;SDS011;4196;48.926;8.964;2022-07-23T08:04:24;11.10;;;7.30;;
8317;SDS011;4196;48.926;8.964;2022-07-23T08:07:10;6.60;;;5.70;;
8317;SDS011;4196;48.926;8.964;2022-07-23T08:09:56;7.70;;;6.00;;
8317;SDS011;4196;48.926;8.964;2022-07-23T08:12:45;8.13;;;6.90;;
8317;SDS011;4196;48.926;8.964;2022-07-23T08:15:35;10.37;;;7.13;;
8317;SDS011;4196;48.926;8.964;2022-07-23T08:18:22;9.27;;;7.13;;
8317;SDS011;4196;48.926;8.964;2022-07-23T08:21:08;8.10;;;6.73;;
8317;SDS011;4196;48.926;8.964;2022-07-23T08:23:54;9.27;;;7.07;;
8317;SDS011;4196;48.926;8.964;2022-07-23T08:26:41;7.57;;;6.60;;
8317;SDS011;4196;48.926;8.964;2022-07-23T08:29:27;8.63;;;6.87;;
8317;SDS011;4196;48.926;8.964;2022-07-23T08:32:14;8.87;;;7.07;;
8317;SDS011;4196;48.926;8.964;2022-07-23T08:35:25;10.97;;;7.33;;
8317;SDS011;4196;48.926;8.964;2022-07-23T08:38:18;9.30;;;6.90;;
8317;SDS011;4196;48.926;8.964;2022-07-23T08:41:05;10.67;;;6.80;;
8317;SDS011;4196;48.926;8.964;2022-07-23T08:43:53;11.00;;;6.90;;
8317;SDS011;4196;48.926;8.964;2022-07-23T08:46:40;10.37;;;7.20;;
8317;SDS011;4196;48.926;8.964;2022-07-23T08:49:29;7.80;;;6.00;;
8317;SDS011;4196;48.926;8.964;2022-07-23T08:52:16;9.40;;;6.37;;
8317;SDS011;4196;48.926;8.964;2022-07-23T08:55:03;14.47;;;6.20;;
8317;SDS011;4196;48.926;8.964;2022-07-23T08:57:51;6.93;;;6.23;;
8317;SDS011;4196;48.926;8.964;2022-07-23T09:00:38;5.40;;;4.90;;
8317;SDS011;4196;48.926;8.964;2022-07-23T09:03:26;7.87;;;6.10;;
8317;SDS011;4196;48.926;8.964;2022-07-23T09:06:17;5.63;;;5.00;;
8317;SDS011;4196;48.926;8.964;2022-07-23T09:09:16;6.13;;;4.63;;
8317;SDS011;4196;48.926;8.964;2022-07-23T09:12:03;5.77;;;5.17;;
8317;SDS011;4196;48.926;8.964;2022-07-23T09:14:52;4.27;;;3.87;;
8317;SDS011;4196;48.926;8.964;2022-07-23T09:17:39;4.53;;;3.60;;
8317;SDS011;4196;48.926;8.964;2022-07-23T09:20:27;5.23;;;4.43;;
8317;SDS011;4196;48.926;8.964;2022-07-23T09:23:14;4.88;;;4.38;;
8317;SDS011;4196;48.926;8.964;2022-07-23T09:26:01;4.90;;;4.40;;
8317;SDS011;4196;48.926;8.964;2022-07-23T09:28:52;7.57;;;4.70;;
8317;SDS011;4196;48.926;8.964;2022-07-23T09:31:54;5.80;;;4.73;;
8317;SDS011;4196;48.926;8.964;2022-07-23T09:34:44;6.80;;;4.90;;
8317;SDS011;4196;48.926;8.964;2022-07-23T09:37:35;5.90;;;5.40;;
8317;SDS011;4196;48.926;8.964;2022-07-23T09:40:21;6.23;;;4.27;;
8317;SDS011;4196;48.926;8.964;2022-07-23T09:43:08;5.30;;;4.67;;
8317;SDS011;4196;48.926;8.964;2022-07-23T09:45:59;6.63;;;5.63;;
8317;SDS011;4196;48.926;8.964;2022-07-23T09:49:09;5.83;;;4.83;;
8317;SDS011;4196;48.926;8.964;2022-07-23T09:51:58;5.80;;;5.03;;
8317;SDS011;4196;48.926;8.964;2022-07-23T09:54:47;5.87;;;5.17;;
8317;SDS011;4196;48.926;8.964;2022-07-23T09:57:47;5.87;;;4.67;;
8317;SDS011;4196;48.926;8.964;2022-07-23T10:00:40;6.47;;;4.97;;
8317;SDS011;4196;48.926;8.964;2022-07-23T10:03:26;5.70;;;5.10;;
8317;SDS011;4196;48.926;8.964;2022-07-23T10:06:51;5.40;;;4.57;;
8317;SDS011;4196;48.926;8.964;2022-07-23T10:10:02;7.30;;;5.20;;
8317;SDS011;4196;48.926;8.964;2022-07-23T10:13:08;5.07;;;4.10;;
8317;SDS011;4196;48.926;8.964;2022-07-23T10:16:13;4.97;;;4.47;;
8317;SDS011;4196;48.926;8.964;2022-07-23T10:19:12;4.70;;;4.30;;
8317;SDS011;4196;48.926;8.964;2022-07-23T10:22:00;4.33;;;3.93;;
8317;SDS011;4196;48.926;8.964;2022-07-23T10:31:05;5.78;;;4.35;;
8317;SDS011;4196;48.926;8.964;2022-07-23T10:34:25;6.05;;;4.47;;
8317;SDS011;4196;48.926;8.964;2022-07-23T10:37:34;5.80;;;5.18;;
8317;SDS011;4196;48.926;8.964;2022-07-23T10:40:24;5.68;;;4.60;;
8317;SDS011;4196;48.926;8.964;2022-07-23T10:43:13;4.57;;;3.90;;
8317;SDS011;4196;48.926;8.964;2022-07-23T10:46:23;5.60;;;4.97;;
8317;SDS011;4196;48.926;8.964;2022-07-23T10:49:22;5.93;;;4.93;;
8317;SDS011;4196;48.926;8.964;2022-07-23T10:57:48;6.30;;;4.78;;
8317;SDS011;4196;48.926;8.964;2022-07-23T11:00:36;7.60;;;5.07;;
8317;SDS011;4196;48.926;8.964;2022-07-23T11:03:56;5.55;;;4.32;;
8317;SDS011;4196;48.926;8.964;2022-07-23T11:09:40;6.38;;;4.72;;
8317;SDS011;4196;48.926;8.964;2022-07-23T11:15:15;5.75;;;5.15;;
8317;SDS011;4196;48.926;8.964;2022-07-23T11:18:02;5.32;;;4.82;;
8317;SDS011;4196;48.926;8.964;2022-07-23T11:20:48;4.75;;;4.25;;
8317;SDS011;4196;48.926;8.964;2022-07-23T11:26:45;5.82;;;5.25;;
8317;SDS011;4196;48.926;8.964;2022-07-23T11:29:44;5.32;;;4.82;;
8317;SDS011;4196;48.926;8.964;2022-07-23T11:32:34;5.43;;;4.88;;
8317;SDS011;4196;48.926;8.964;2022-07-23T11:35:29;5.65;;;5.07;;
8317;SDS011;4196;48.926;8.964;2022-07-23T11:38:18;7.40;;;5.20;;
8317;SDS011;4196;48.926;8.964;2022-07-23T11:41:06;7.40;;;5.20;;
8317;SDS011;4196;48.926;8.964;2022-07-23T11:43:54;6.00;;;5.40;;
8317;SDS011;4196;48.926;8.964;2022-07-23T11:46:40;6.60;;;5.60;;
8317;SDS011;4196;48.926;8.964;2022-07-23T11:49:27;7.75;;;5.43;;
8317;SDS011;4196;48.926;8.964;2022-07-23T11:52:14;5.75;;;5.25;;
8317;SDS011;4196;48.926;8.964;2022-07-23T11:55:05;5.50;;;5.00;;
8317;SDS011;4196;48.926;8.964;2022-07-23T11:57:55;5.95;;;5.35;;
8317;SDS011;4196;48.926;8.964;2022-07-23T12:00:41;6.18;;;4.97;;
8317;SDS011;4196;48.926;8.964;2022-07-23T12:03:28;6.28;;;5.15;;
8317;SDS011;4196;48.926;8.964;2022-07-23T12:06:15;7.68;;;5.18;;
8317;SDS011;4196;48.926;8.964;2022-07-23T12:09:01;4.88;;;4.45;;
8317;SDS011;4196;48.926;8.964;2022-07-23T12:11:58;5.68;;;4.85;;
8317;SDS011;4196;48.926;8.964;2022-07-23T12:17:43;5.90;;;5.30;;
8317;SDS011;4196;48.926;8.964;2022-07-23T12:20:41;8.85;;;6.63;;
8317;SDS011;4196;48.926;8.964;2022-07-23T12:23:30;8.95;;;7.68;;
8317;SDS011;4196;48.926;8.964;2022-07-23T12:26:17;10.15;;;7.40;;
8317;SDS011;4196;48.926;8.964;2022-07-23T12:29:03;5.93;;;5.10;;
8317;SDS011;4196;48.926;8.964;2022-07-23T12:31:50;5.35;;;4.82;;
8317;SDS011;4196;48.926;8.964;2022-07-23T12:34:36;6.03;;;5.43;;
8317;SDS011;4196;48.926;8.964;2022-07-23T12:37:34;6.85;;;5.75;;
8317;SDS011;4196;48.926;8.964;2022-07-23T12:40:27;6.78;;;6.05;;
8317;SDS011;4196;48.926;8.964;2022-07-23T12:43:23;6.70;;;5.60;;
8317;SDS011;4196;48.926;8.964;2022-07-23T12:46:13;8.02;;;6.28;;
8317;SDS011;4196;48.926;8.964;2022-07-23T12:49:02;6.78;;;6.05;;
8317;SDS011;4196;48.926;8.964;2022-07-23T12:51:49;12.07;;;6.63;;
8317;SDS011;4196;48.926;8.964;2022-07-23T12:54:36;8.52;;;6.18;;
8317;SDS011;4196;48.926;8.964;2022-07-23T12:57:44;7.38;;;6.18;;
8317;SDS011;4196;48.926;8.964;2022-07-23T13:00:31;9.15;;;6.40;;
8317;SDS011;4196;48.926;8.964;2022-07-23T13:03:38;7.03;;;5.63;;
8317;SDS011;4196;48.926;8.964;2022-07-23T13:06:27;5.78;;;5.28;;
8317;SDS011;4196;48.926;8.964;2022-07-23T13:09:18;6.07;;;5.38;;
8317;SDS011;4196;48.926;8.964;2022-07-23T13:12:10;6.30;;;5.65;;
8317;SDS011;4196;48.926;8.964;2022-07-23T13:14:58;6.60;;;5.28;;
8317;SDS011;4196;48.926;8.964;2022-07-23T13:17:44;7.90;;;4.97;;
8317;SDS011;4196;48.926;8.964;2022-07-23T13:20:31;5.97;;;5.00;;
8317;SDS011;4196;48.926;8.964;2022-07-23T13:23:20;5.75;;;5.15;;
8317;SDS011;4196;48.926;8.964;2022-07-23T13:26:07;6.35;;;5.50;;
8317;SDS011;4196;48.926;8.964;2022-07-23T13:28:53;5.90;;;5.30;;
8317;SDS011;4196;48.926;8.964;2022-07-23T13:31:40;5.55;;;4.97;;
8317;SDS011;4196;48.926;8.964;2022-07-23T13:34:27;6.10;;;5.40;;
8317;SDS011;4196;48.926;8.964;2022-07-23T13:37:13;5.53;;;5.05;;
8317;SDS011;4196;48.926;8.964;2022-07-23T13:40:00;5.63;;;4.75;;
8317;SDS011;4196;48.926;8.964;2022-07-23T13:43:01;6.03;;;5.15;;
8317;SDS011;4196;48.926;8.964;2022-07-23T13:45:53;7.35;;;5.20;;
8317;SDS011;4196;48.926;8.964;2022-07-23T13:48:39;5.30;;;4.80;;
8317;SDS011;4196;48.926;8.964;2022-07-23T13:51:26;5.70;;;4.80;;
8317;SDS011;4196;48.926;8.964;2022-07-23T13:54:13;5.15;;;4.63;;
8317;SDS011;4196;48.926;8.964;2022-07-23T13:57:00;6.85;;;5.88;;
8317;SDS011;4196;48.926;8.964;2022-07-23T13:59:47;6.47;;;5.53;;
8317;SDS011;4196;48.926;8.964;2022-07-23T14:02:34;7.35;;;5.97;;
8317;SDS011;4196;48.926;8.964;2022-07-23T14:05:22;6.75;;;5.78;;
8317;SDS011;4196;48.926;8.964;2022-07-23T14:08:09;7.70;;;6.03;;
8317;SDS011;4196;48.926;8.964;2022-07-23T14:10:56;5.90;;;5.30;;
8317;SDS011;4196;48.926;8.964;2022-07-23T14:13:44;6.85;;;5.05;;
8317;SDS011;4196;48.926;8.964;2022-07-23T14:16:31;7.25;;;5.43;;
8317;SDS011;4196;48.926;8.964;2022-07-23T14:19:18;6.20;;;4.80;;
8317;SDS011;4196;48.926;8.964;2022-07-23T14:22:05;7.30;;;5.13;;
8317;SDS011;4196;48.926;8.964;2022-07-23T14:24:52;5.55;;;5.05;;
8317;SDS011;4196;48.926;8.964;2022-07-23T14:27:38;5.90;;;5.30;;
8317;SDS011;4196;48.926;8.964;2022-07-23T14:30:25;5.68;;;5.07;;
8317;SDS011;4196;48.926;8.964;2022-07-23T14:33:18;6.43;;;4.90;;
8317;SDS011;4196;48.926;8.964;2022-07-23T14:36:06;5.32;;;4.82;;
8317;SDS011;4196;48.926;8.964;2022-07-23T14:39:00;5.40;;;4.88;;
8317;SDS011;4196;48.926;8.964;2022-07-23T14:41:48;6.22;;;5.10;;
8317;SDS011;4196;48.926;8.964;2022-07-23T14:44:34;5.65;;;4.97;;
8317;SDS011;4196;48.926;8.964;2022-07-23T14:47:21;5.05;;;4.55;;
8317;SDS011;4196;48.926;8.964;2022-07-23T14:50:10;5.40;;;4.90;;
8317;SDS011;4196;48.926;8.964;2022-07-23T14:52:56;5.35;;;4.90;;
8317;SDS011;4196;48.926;8.964;2022-07-23T14:55:43;5.70;;;5.00;;
8317;SDS011;4196;48.926;8.964;2022-07-23T14:58:29;6.50;;;5.43;;
8317;SDS011;4196;48.926;8.964;2022-07-23T15:01:15;5.40;;;4.90;;
8317;SDS011;4196;48.926;8.964;2022-07-23T15:04:03;8.07;;;5.60;;
8317;SDS011;4196;48.926;8.964;2022-07-23T15:07:11;5.72;;;5.15;;
8317;SDS011;4196;48.926;8.964;2022-07-23T15:09:57;5.55;;;5.00;;
8317;SDS011;4196;48.926;8.964;2022-07-23T15:12:44;5.15;;;4.68;;
8317;SDS011;4196;48.926;8.964;2022-07-23T15:15:32;5.50;;;5.00;;
8317;SDS011;4196;48.926;8.964;2022-07-23T15:18:18;7.97;;;5.43;;
8317;SDS011;4196;48.926;8.964;2022-07-23T15:21:05;8.40;;;5.60;;
8317;SDS011;4196;48.926;8.964;2022-07-23T15:23:53;6.78;;;5.22;;
8317;SDS011;4196;48.926;8.964;2022-07-23T15:26:41;7.00;;;5.40;;
8317;SDS011;4196;48.926;8.964;2022-07-23T15:29:27;5.70;;;5.10;;
8317;SDS011;4196;48.926;8.964;2022-07-23T15:32:14;6.35;;;5.38;;
8317;SDS011;4196;48.926;8.964;2022-07-23T15:35:00;5.97;;;5.30;;
8317;SDS011;4196;48.926;8.964;2022-07-23T15:37:48;5.95;;;5.18;;
8317;SDS011;4196;48.926;8.964;2022-07-23T15:40:35;6.78;;;5.43;;
8317;SDS011;4196;48.926;8.964;2022-07-23T15:43:23;6.35;;;5.75;;
8317;SDS011;4196;48.926;8.964;2022-07-23T15:46:11;6.70;;;5.20;;
8317;SDS011;4196;48.926;8.964;2022-07-23T15:48:57;6.57;;;5.38;;
8317;SDS011;4196;48.926;8.964;2022-07-23T15:51:44;5.43;;;4.93;;
8317;SDS011;4196;48.926;8.964;2022-07-23T15:54:33;6.55;;;5.47;;
8317;SDS011;4196;48.926;8.964;2022-07-23T15:57:19;5.60;;;5.07;;
8317;SDS011;4196;48.926;8.964;2022-07-23T16:00:07;6.25;;;5.65;;
8317;SDS011;4196;48.926;8.964;2022-07-23T16:02:55;5.88;;;5.38;;
8317;SDS011;4196;48.926;8.964;2022-07-23T16:05:41;6.18;;;5.57;;
8317;SDS011;4196;48.926;8.964;2022-07-23T16:08:28;7.22;;;6.47;;
8317;SDS011;4196;48.926;8.964;2022-07-23T16:11:14;7.15;;;5.93;;
8317;SDS011;4196;48.926;8.964;2022-07-23T16:14:01;6.03;;;5.38;;
8317;SDS011;4196;48.926;8.964;2022-07-23T16:16:48;6.05;;;5.45;;
8317;SDS011;4196;48.926;8.964;2022-07-23T16:19:34;7.03;;;6.32;;
8317;SDS011;4196;48.926;8.964;2022-07-23T16:22:21;6.05;;;5.45;;
8317;SDS011;4196;48.926;8.964;2022-07-23T16:25:07;7.80;;;6.22;;
8317;SDS011;4196;48.926;8.964;2022-07-23T16:27:54;6.63;;;5.93;;
8317;SDS011;4196;48.926;8.964;2022-07-23T16:30:41;6.93;;;6.18;;
8317;SDS011;4196;48.926;8.964;2022-07-23T16:33:28;7.57;;;6.35;;
8317;SDS011;4196;48.926;8.964;2022-07-23T16:36:15;7.72;;;6.47;;
8317;SDS011;4196;48.926;8.964;2022-07-23T16:39:02;7.95;;;6.35;;
8317;SDS011;4196;48.926;8.964;2022-07-23T16:41:51;8.68;;;6.63;;
8317;SDS011;4196;48.926;8.964;2022-07-23T16:44:38;8.68;;;7.15;;
8317;SDS011;4196;48.926;8.964;2022-07-23T16:47:24;7.28;;;6.55;;
8317;SDS011;4196;48.926;8.964;2022-07-23T16:50:11;7.88;;;6.55;;
8317;SDS011;4196;48.926;8.964;2022-07-23T16:52:57;7.00;;;6.40;;
8317;SDS011;4196;48.926;8.964;2022-07-23T16:55:43;8.93;;;6.28;;
8317;SDS011;4196;48.926;8.964;2022-07-23T16:58:31;8.52;;;6.43;;
8317;SDS011;4196;48.926;8.964;2022-07-23T17:01:17;10.02;;;6.18;;
8317;SDS011;4196;48.926;8.964;2022-07-23T17:04:04;7.65;;;6.57;;
8317;SDS011;4196;48.926;8.964;2022-07-23T17:06:51;7.10;;;6.40;;
8317;SDS011;4196;48.926;8.964;2022-07-23T17:09:37;8.35;;;6.43;;
8317;SDS011;4196;48.926;8.964;2022-07-23T17:12:24;7.50;;;6.50;;
8317;SDS011;4196;48.926;8.964;2022-07-23T17:15:10;8.02;;;6.68;;
8317;SDS011;4196;48.926;8.964;2022-07-23T17:17:57;7.72;;;6.75;;
8317;SDS011;4196;48.926;8.964;2022-07-23T17:20:43;9.82;;;7.05;;
8317;SDS011;4196;48.926;8.964;2022-07-23T17:23:30;7.53;;;6.50;;
8317;SDS011;4196;48.926;8.964;2022-07-23T17:26:16;8.77;;;6.60;;
8317;SDS011;4196;48.926;8.964;2022-07-23T17:29:06;7.35;;;6.65;;
8317;SDS011;4196;48.926;8.964;2022-07-23T17:31:53;8.30;;;6.55;;
8317;SDS011;4196;48.926;8.964;2022-07-23T17:34:39;7.80;;;6.45;;
8317;SDS011;4196;48.926;8.964;2022-07-23T17:37:26;7.60;;;6.80;;
8317;SDS011;4196;48.926;8.964;2022-07-23T17:40:12;6.65;;;6.00;;
8317;SDS011;4196;48.926;8.964;2022-07-23T17:42:59;8.50;;;6.60;;
8317;SDS011;4196;48.926;8.964;2022-07-23T17:45:46;8.23;;;7.07;;
8317;SDS011;4196;48.926;8.964;2022-07-23T17:48:33;7.38;;;6.68;;
8317;SDS011;4196;48.926;8.964;2022-07-23T17:51:20;7.65;;;6.90;;